sensor_id;sensor_type;location;lat;lon;timestamp;pressure;altitude;pressure_sealevel;temperature;humidity
22181;BME280;11256;50.830;12.834;2023-02-12T00:03:18;99384.72;;;6.14;79.12
22181;BME280;11256;50.830;12.834;2023-02-12T00:08:18;99367.97;;;6.05;79.04
22181;BME280;11256;50.830;12.834;2023-02-12T00:13:19;99373.75;;;6.15;79.38
22181;BME280;11256;50.830;12.834;2023-02-12T00:18:19;99374.16;;;6.12;79.09
22181;BME280;11256;50.830;12.834;2023-02-12T00:23:20;99375.00;;;6.13;78.84
22181;BME280;11256;50.830;12.834;2023-02-12T00:28:20;99372.31;;;6.13;79.39
22181;BME280;11256;50.830;12.834;2023-02-12T00:33:21;99370.88;;;6.17;79.06
22181;BME280;11256;50.830;12.834;2023-02-12T00:38:21;99374.41;;;6.11;79.74
22181;BME280;11256;50.830;12.834;2023-02-12T00:43:22;99374.81;;;6.14;79.31
22181;BME280;11256;50.830;12.834;2023-02-12T00:48:22;99381.22;;;6.13;79.37
22181;BME280;11256;50.830;12.834;2023-02-12T00:53:22;99375.84;;;6.13;79.08
22181;BME280;11256;50.830;12.834;2023-02-12T00:58:23;99380.19;;;6.14;79.32
22181;BME280;11256;50.830;12.834;2023-02-12T01:03:24;99390.75;;;6.16;79.65
22181;BME280;11256;50.830;12.834;2023-02-12T01:08:25;99399.81;;;6.15;78.99
22181;BME280;11256;50.830;12.834;2023-02-12T01:13:26;99409.38;;;6.11;78.84
22181;BME280;11256;50.830;12.834;2023-02-12T01:18:27;99406.06;;;6.15;79.01
22181;BME280;11256;50.830;12.834;2023-02-12T01:23:27;99395.91;;;6.17;79.17
22181;BME280;11256;50.830;12.834;2023-02-12T01:28:28;99404.81;;;6.18;78.97
22181;BME280;11256;50.830;12.834;2023-02-12T01:33:28;99401.50;;;6.16;79.14
22181;BME280;11256;50.830;12.834;2023-02-12T01:38:28;99390.75;;;6.16;79.06
22181;BME280;11256;50.830;12.834;2023-02-12T01:43:29;99399.81;;;6.15;78.97
22181;BME280;11256;50.830;12.834;2023-02-12T01:48:33;99409.16;;;6.19;79.05
22181;BME280;11256;50.830;12.834;2023-02-12T01:53:42;99409.34;;;6.17;79.25
22181;BME280;11256;50.830;12.834;2023-02-12T01:58:45;99398.19;;;6.14;79.16
22181;BME280;11256;50.830;12.834;2023-02-12T02:03:49;99410.19;;;6.18;79.50
22181;BME280;11256;50.830;12.834;2023-02-12T02:08:51;99410.78;;;6.20;79.21
22181;BME280;11256;50.830;12.834;2023-02-12T02:13:52;99402.53;;;6.15;79.18
22181;BME280;11256;50.830;12.834;2023-02-12T02:35:42;99401.06;;;6.19;78.76
22181;BME280;11256;50.830;12.834;2023-02-12T02:40:50;99383.28;;;6.18;78.58
22181;BME280;11256;50.830;12.834;2023-02-12T02:45:58;99390.72;;;6.22;79.43
22181;BME280;11256;50.830;12.834;2023-02-12T02:51:13;99395.28;;;6.22;78.92
22181;BME280;11256;50.830;12.834;2023-02-12T02:56:18;99399.03;;;6.21;79.23
22181;BME280;11256;50.830;12.834;2023-02-12T03:01:30;99387.00;;;6.17;79.17
22181;BME280;11256;50.830;12.834;2023-02-12T03:06:50;99401.47;;;6.22;79.42
22181;BME280;11256;50.830;12.834;2023-02-12T03:12:01;99412.25;;;6.22;78.90
22181;BME280;11256;50.830;12.834;2023-02-12T03:17:08;99411.84;;;6.19;79.19
22181;BME280;11256;50.830;12.834;2023-02-12T03:22:19;99410.59;;;6.15;79.39
22181;BME280;11256;50.830;12.834;2023-02-12T03:27:27;99420.13;;;6.24;79.23
22181;BME280;11256;50.830;12.834;2023-02-12T03:32:38;99424.91;;;6.22;79.44
22181;BME280;11256;50.830;12.834;2023-02-12T03:38:08;99423.00;;;6.22;79.11
22181;BME280;11256;50.830;12.834;2023-02-12T03:43:26;99431.53;;;6.19;79.12
22181;BME280;11256;50.830;12.834;2023-02-12T03:53:30;99430.47;;;6.20;79.10
22181;BME280;11256;50.830;12.834;2023-02-12T03:58:33;99450.34;;;6.26;79.24
22181;BME280;11256;50.830;12.834;2023-02-12T04:03:34;99457.78;;;6.24;79.85
22181;BME280;11256;50.830;12.834;2023-02-12T04:08:34;99475.59;;;6.25;79.61
22181;BME280;11256;50.830;12.834;2023-02-12T04:18:49;99479.94;;;6.26;79.42
22181;BME280;11256;50.830;12.834;2023-02-12T04:24:02;99482.63;;;6.26;80.02
22181;BME280;11256;50.830;12.834;2023-02-12T04:29:25;99485.31;;;6.26;79.94
22181;BME280;11256;50.830;12.834;2023-02-12T04:35:10;99482.22;;;6.29;80.34
22181;BME280;11256;50.830;12.834;2023-02-12T04:40:14;99483.66;;;6.25;79.88
22181;BME280;11256;50.830;12.834;2023-02-12T04:45:20;99483.66;;;6.25;79.67
22181;BME280;11256;50.830;12.834;2023-02-12T04:50:22;99490.50;;;6.27;79.81
22181;BME280;11256;50.830;12.834;2023-02-12T04:55:22;99470.66;;;6.22;79.33
22181;BME280;11256;50.830;12.834;2023-02-12T05:00:22;99489.69;;;6.27;79.39
22181;BME280;11256;50.830;12.834;2023-02-12T05:05:23;99490.72;;;6.26;79.17
22181;BME280;11256;50.830;12.834;2023-02-12T05:10:23;99487.00;;;6.27;79.28
22181;BME280;11256;50.830;12.834;2023-02-12T05:15:24;99497.78;;;6.27;79.45
22181;BME280;11256;50.830;12.834;2023-02-12T05:20:24;99489.69;;;6.27;79.23
22181;BME280;11256;50.830;12.834;2023-02-12T05:25:24;99488.66;;;6.28;78.86
22181;BME280;11256;50.830;12.834;2023-02-12T05:30:25;99474.78;;;6.18;79.20
22181;BME280;11256;50.830;12.834;2023-02-12T05:35:25;99492.19;;;6.22;79.15
22181;BME280;11256;50.830;12.834;2023-02-12T05:40:25;99482.88;;;6.18;79.07
22181;BME280;11256;50.830;12.834;2023-02-12T05:45:26;99512.88;;;6.28;78.95
22181;BME280;11256;50.830;12.834;2023-02-12T05:50:28;99518.06;;;6.29;79.15
22181;BME280;11256;50.830;12.834;2023-02-12T05:55:33;99515.13;;;6.31;78.75
22181;BME280;11256;50.830;12.834;2023-02-12T06:00:33;99516.19;;;6.30;78.67
22181;BME280;11256;50.830;12.834;2023-02-12T06:05:34;99517.22;;;6.29;78.86
22181;BME280;11256;50.830;12.834;2023-02-12T06:10:35;99524.25;;;6.30;78.92
22181;BME280;11256;50.830;12.834;2023-02-12T06:15:36;99522.59;;;6.29;78.91
22181;BME280;11256;50.830;12.834;2023-02-12T06:20:37;99514.31;;;6.24;78.86
22181;BME280;11256;50.830;12.834;2023-02-12T06:25:38;99520.13;;;6.21;79.20
22181;BME280;11256;50.830;12.834;2023-02-12T06:30:39;99545.38;;;6.26;78.85
22181;BME280;11256;50.830;12.834;2023-02-12T06:35:39;99539.16;;;6.26;78.58
22181;BME280;11256;50.830;12.834;2023-02-12T06:40:40;99540.41;;;6.30;78.42
22181;BME280;11256;50.830;12.834;2023-02-12T06:45:41;99553.88;;;6.30;78.49
22181;BME280;11256;50.830;12.834;2023-02-12T06:50:41;99549.31;;;6.24;78.32
22181;BME280;11256;50.830;12.834;2023-02-12T06:55:41;99558.00;;;6.32;78.26
22181;BME280;11256;50.830;12.834;2023-02-12T07:00:42;99560.50;;;6.27;78.46
22181;BME280;11256;50.830;12.834;2023-02-12T07:05:42;99569.63;;;6.33;78.39
22181;BME280;11256;50.830;12.834;2023-02-12T07:10:47;99577.47;;;6.34;78.39
22181;BME280;11256;50.830;12.834;2023-02-12T07:15:47;99575.81;;;6.33;78.69
22181;BME280;11256;50.830;12.834;2023-02-12T07:20:47;99585.34;;;6.36;78.55
22181;BME280;11256;50.830;12.834;2023-02-12T07:25:55;99573.75;;;6.29;78.82
22181;BME280;11256;50.830;12.834;2023-02-12T07:30:56;99587.00;;;6.37;78.78
22181;BME280;11256;50.830;12.834;2023-02-12T07:35:59;99570.66;;;6.32;78.81
22181;BME280;11256;50.830;12.834;2023-02-12T07:41:11;99587.63;;;6.39;78.60
22181;BME280;11256;50.830;12.834;2023-02-12T07:46:17;99598.19;;;6.47;78.81
22181;BME280;11256;50.830;12.834;2023-02-12T07:51:18;99584.72;;;6.47;78.94
22181;BME280;11256;50.830;12.834;2023-02-12T07:56:26;99605.66;;;6.58;78.14
22181;BME280;11256;50.830;12.834;2023-02-12T08:01:33;99596.53;;;6.59;78.62
22181;BME280;11256;50.830;12.834;2023-02-12T08:06:37;99597.78;;;6.63;78.25
22181;BME280;11256;50.830;12.834;2023-02-12T08:11:38;99607.09;;;6.67;78.61
22181;BME280;11256;50.830;12.834;2023-02-12T08:16:40;99594.03;;;6.64;78.29
22181;BME280;11256;50.830;12.834;2023-02-12T08:21:41;99596.53;;;6.65;78.32
22181;BME280;11256;50.830;12.834;2023-02-12T08:26:42;99612.25;;;6.75;78.12
22181;BME280;11256;50.830;12.834;2023-02-12T08:31:46;99605.66;;;6.71;78.34
22181;BME280;11256;50.830;12.834;2023-02-12T08:36:48;99615.19;;;6.73;79.49
22181;BME280;11256;50.830;12.834;2023-02-12T08:41:49;99629.28;;;6.82;78.35
22181;BME280;11256;50.830;12.834;2023-02-12T08:46:51;99628.03;;;6.84;78.64
22181;BME280;11256;50.830;12.834;2023-02-12T08:51:54;99626.78;;;6.87;78.32
22181;BME280;11256;50.830;12.834;2023-02-12T08:56:56;99609.38;;;6.83;78.23
22181;BME280;11256;50.830;12.834;2023-02-12T09:01:57;99626.78;;;6.87;78.10
22181;BME280;11256;50.830;12.834;2023-02-12T09:06:58;99636.72;;;6.93;78.30
22181;BME280;11256;50.830;12.834;2023-02-12T09:11:58;99636.69;;;6.99;78.37
22181;BME280;11256;50.830;12.834;2023-02-12T09:16:59;99646.22;;;7.02;78.44
22181;BME280;11256;50.830;12.834;2023-02-12T09:21:59;99642.94;;;7.00;78.45
22181;BME280;11256;50.830;12.834;2023-02-12T09:26:59;99648.31;;;7.00;78.12
22181;BME280;11256;50.830;12.834;2023-02-12T09:32:00;99663.44;;;7.07;78.24
22181;BME280;11256;50.830;12.834;2023-02-12T09:37:03;99680.03;;;7.11;78.40
22181;BME280;11256;50.830;12.834;2023-02-12T09:42:11;99693.09;;;7.14;78.32
22181;BME280;11256;50.830;12.834;2023-02-12T09:47:26;99693.91;;;7.14;78.39
22181;BME280;11256;50.830;12.834;2023-02-12T09:52:30;99687.28;;;7.17;78.38
22181;BME280;11256;50.830;12.834;2023-02-12T09:57:33;99698.06;;;7.17;78.42
22181;BME280;11256;50.830;12.834;2023-02-12T10:02:36;99702.22;;;7.19;78.27
22181;BME280;11256;50.830;12.834;2023-02-12T10:07:56;99693.72;;;7.16;78.21
22181;BME280;11256;50.830;12.834;2023-02-12T10:13:06;99711.34;;;7.25;78.70
22181;BME280;11256;50.830;12.834;2023-02-12T10:24:01;99709.66;;;7.30;78.85
22181;BME280;11256;50.830;12.834;2023-02-12T10:29:15;99709.25;;;7.33;78.57
22181;BME280;11256;50.830;12.834;2023-02-12T10:34:30;99715.25;;;7.35;78.11
22181;BME280;11256;50.830;12.834;2023-02-12T10:39:35;99713.41;;;7.36;78.00
22181;BME280;11256;50.830;12.834;2023-02-12T10:44:37;99713.41;;;7.36;78.57
22181;BME280;11256;50.830;12.834;2023-02-12T10:49:37;99712.56;;;7.42;78.44
22181;BME280;11256;50.830;12.834;2023-02-12T10:54:43;99693.03;;;7.40;78.83
22181;BME280;11256;50.830;12.834;2023-02-12T10:59:45;99695.94;;;7.45;78.75
22181;BME280;11256;50.830;12.834;2023-02-12T11:04:46;99687.19;;;7.56;79.09
22181;BME280;11256;50.830;12.834;2023-02-12T11:09:48;99692.59;;;7.56;78.93
22181;BME280;11256;50.830;12.834;2023-02-12T11:14:51;99683.03;;;7.60;79.17
22181;BME280;11256;50.830;12.834;2023-02-12T11:25:15;99686.72;;;7.72;79.17
22181;BME280;11256;50.830;12.834;2023-02-12T11:30:20;99684.66;;;7.74;78.72
22181;BME280;11256;50.830;12.834;2023-02-12T11:35:24;99675.94;;;7.72;79.37
22181;BME280;11256;50.830;12.834;2023-02-12T11:40:29;99678.81;;;7.83;79.55
22181;BME280;11256;50.830;12.834;2023-02-12T11:45:42;99677.97;;;7.83;79.32
22181;BME280;11256;50.830;12.834;2023-02-12T11:50:48;99677.75;;;7.84;79.46
22181;BME280;11256;50.830;12.834;2023-02-12T11:55:56;99681.06;;;7.86;78.70
22181;BME280;11256;50.830;12.834;2023-02-12T12:01:24;99678.78;;;7.90;78.94
22181;BME280;11256;50.830;12.834;2023-02-12T12:06:34;99670.44;;;7.91;79.29
22181;BME280;11256;50.830;12.834;2023-02-12T12:11:49;99659.25;;;7.88;79.19
22181;BME280;11256;50.830;12.834;2023-02-12T12:17:12;99662.16;;;7.93;79.40
22181;BME280;11256;50.830;12.834;2023-02-12T12:22:56;99668.34;;;8.00;78.82
22181;BME280;11256;50.830;12.834;2023-02-12T12:28:26;99670.41;;;8.04;79.00
22181;BME280;11256;50.830;12.834;2023-02-12T12:34:02;99663.75;;;8.07;79.12
22181;BME280;11256;50.830;12.834;2023-02-12T12:44:49;99654.59;;;8.08;78.76
22181;BME280;11256;50.830;12.834;2023-02-12T12:49:57;99648.16;;;8.09;79.06
22181;BME280;11256;50.830;12.834;2023-02-12T12:55:10;99659.31;;;8.19;79.09
22181;BME280;11256;50.830;12.834;2023-02-12T13:05:46;99665.53;;;8.26;79.07
22181;BME280;11256;50.830;12.834;2023-02-12T13:10:59;99667.19;;;8.27;79.01
22181;BME280;11256;50.830;12.834;2023-02-12T13:16:10;99665.72;;;8.31;79.32
22181;BME280;11256;50.830;12.834;2023-02-12T13:26:35;99660.31;;;8.31;78.81
22181;BME280;11256;50.830;12.834;2023-02-12T13:31:46;99658.22;;;8.33;78.68
22181;BME280;11256;50.830;12.834;2023-02-12T13:36:48;99631.19;;;8.33;78.86
22181;BME280;11256;50.830;12.834;2023-02-12T13:47:29;99643.47;;;8.60;80.06
22181;BME280;11256;50.830;12.834;2023-02-12T13:52:46;99651.38;;;8.61;79.37
22181;BME280;11256;50.830;12.834;2023-02-12T14:03:30;99650.09;;;8.64;79.33
22181;BME280;11256;50.830;12.834;2023-02-12T14:08:35;99650.56;;;8.61;78.90
22181;BME280;11256;50.830;12.834;2023-02-12T14:13:47;99657.16;;;8.65;78.75
22181;BME280;11256;50.830;12.834;2023-02-12T14:18:50;99651.31;;;8.68;79.19
22181;BME280;11256;50.830;12.834;2023-02-12T14:23:50;99653.41;;;8.66;78.88
22181;BME280;11256;50.830;12.834;2023-02-12T14:28:55;99651.75;;;8.65;78.96
22181;BME280;11256;50.830;12.834;2023-02-12T14:49:24;99664.56;;;8.76;79.00
22181;BME280;11256;50.830;12.834;2023-02-12T14:54:55;99666.66;;;8.74;78.92
22181;BME280;11256;50.830;12.834;2023-02-12T15:00:00;99655.69;;;8.69;78.98
22181;BME280;11256;50.830;12.834;2023-02-12T15:05:11;99648.78;;;8.73;79.20
22181;BME280;11256;50.830;12.834;2023-02-12T15:10:20;99662.31;;;8.73;79.11
22181;BME280;11256;50.830;12.834;2023-02-12T15:15:27;99663.78;;;8.69;78.64
22181;BME280;11256;50.830;12.834;2023-02-12T15:21:22;99646.81;;;8.62;78.80
22181;BME280;11256;50.830;12.834;2023-02-12T15:25:57;99657.13;;;8.71;79.15
22181;BME280;11256;50.830;12.834;2023-02-12T15:31:00;99661.69;;;8.71;79.27
22181;BME280;11256;50.830;12.834;2023-02-12T15:36:02;99648.00;;;8.66;79.27
22181;BME280;11256;50.830;12.834;2023-02-12T15:41:04;99656.28;;;8.71;79.42
22181;BME280;11256;50.830;12.834;2023-02-12T15:46:14;99655.47;;;8.70;79.27
22181;BME280;11256;50.830;12.834;2023-02-12T15:51:20;99655.69;;;8.69;79.49
22181;BME280;11256;50.830;12.834;2023-02-12T15:56:25;99643.66;;;8.65;79.42
22181;BME280;11256;50.830;12.834;2023-02-12T16:01:29;99650.94;;;8.64;79.48
22181;BME280;11256;50.830;12.834;2023-02-12T16:06:32;99645.97;;;8.61;79.37
22181;BME280;11256;50.830;12.834;2023-02-12T16:11:34;99645.16;;;8.61;79.35
22181;BME280;11256;50.830;12.834;2023-02-12T16:16:50;99657.63;;;8.62;79.46
22181;BME280;11256;50.830;12.834;2023-02-12T16:22:01;99665.53;;;8.57;79.39
22181;BME280;11256;50.830;12.834;2023-02-12T16:42:34;99691.84;;;8.37;78.73
22181;BME280;11256;50.830;12.834;2023-02-12T16:47:34;99687.31;;;8.31;78.70
22181;BME280;11256;50.830;12.834;2023-02-12T16:52:37;99703.34;;;8.26;78.64
22181;BME280;11256;50.830;12.834;2023-02-12T16:57:38;99701.50;;;8.20;78.77
22181;BME280;11256;50.830;12.834;2023-02-12T17:02:38;99699.44;;;8.15;78.44
22181;BME280;11256;50.830;12.834;2023-02-12T17:07:39;99693.00;;;8.10;78.61
22181;BME280;11256;50.830;12.834;2023-02-12T17:12:47;99702.16;;;8.09;78.64
22181;BME280;11256;50.830;12.834;2023-02-12T17:17:48;99699.88;;;8.06;79.02
22181;BME280;11256;50.830;12.834;2023-02-12T17:22:50;99703.63;;;8.05;79.38
22181;BME280;11256;50.830;12.834;2023-02-12T17:27:51;99704.47;;;7.99;79.01
22181;BME280;11256;50.830;12.834;2023-02-12T17:32:51;99714.69;;;7.97;78.79
22181;BME280;11256;50.830;12.834;2023-02-12T17:37:52;99720.69;;;7.92;78.90
22181;BME280;11256;50.830;12.834;2023-02-12T17:42:52;99716.59;;;7.90;78.98
22181;BME280;11256;50.830;12.834;2023-02-12T17:47:52;99726.75;;;7.88;78.96
22181;BME280;11256;50.830;12.834;2023-02-12T17:52:53;99710.34;;;7.83;78.49
22181;BME280;11256;50.830;12.834;2023-02-12T17:57:54;99715.16;;;7.81;78.96
22181;BME280;11256;50.830;12.834;2023-02-12T18:02:55;99733.44;;;7.79;79.23
22181;BME280;11256;50.830;12.834;2023-02-12T18:07:55;99730.75;;;7.79;79.07
22181;BME280;11256;50.830;12.834;2023-02-12T18:12:56;99721.59;;;7.73;79.39
22181;BME280;11256;50.830;12.834;2023-02-12T18:17:56;99716.22;;;7.67;79.19
22181;BME280;11256;50.830;12.834;2023-02-12T18:22:56;99733.25;;;7.74;79.25
22181;BME280;11256;50.830;12.834;2023-02-12T18:27:57;99726.59;;;7.70;79.51
22181;BME280;11256;50.830;12.834;2023-02-12T18:32:58;99727.44;;;7.64;79.50
22181;BME280;11256;50.830;12.834;2023-02-12T18:37:58;99730.75;;;7.66;79.03
22181;BME280;11256;50.830;12.834;2023-02-12T18:42:59;99733.66;;;7.64;79.18
22181;BME280;11256;50.830;12.834;2023-02-12T18:48:00;99725.78;;;7.63;78.91
22181;BME280;11256;50.830;12.834;2023-02-12T18:53:00;99718.13;;;7.60;79.03
22181;BME280;11256;50.830;12.834;2023-02-12T18:58:00;99725.78;;;7.63;78.63
22181;BME280;11256;50.830;12.834;2023-02-12T19:03:01;99720.81;;;7.60;79.41
22181;BME280;11256;50.830;12.834;2023-02-12T19:08:01;99719.97;;;7.59;79.02
22181;BME280;11256;50.830;12.834;2023-02-12T19:13:02;99722.91;;;7.58;79.10
22181;BME280;11256;50.830;12.834;2023-02-12T19:18:02;99697.59;;;7.46;79.45
22181;BME280;11256;50.830;12.834;2023-02-12T19:23:03;99707.56;;;7.52;79.39
22181;BME280;11256;50.830;12.834;2023-02-12T19:28:03;99698.84;;;7.50;79.48
22181;BME280;11256;50.830;12.834;2023-02-12T19:33:04;99712.31;;;7.50;79.48
22181;BME280;11256;50.830;12.834;2023-02-12T19:38:05;99707.13;;;7.48;79.47
22181;BME280;11256;50.830;12.834;2023-02-12T19:43:05;99703.19;;;7.51;79.64
22181;BME280;11256;50.830;12.834;2023-02-12T19:48:05;99700.09;;;7.47;79.48
22181;BME280;11256;50.830;12.834;2023-02-12T19:53:05;99710.88;;;7.47;79.03
22181;BME280;11256;50.830;12.834;2023-02-12T19:58:07;99703.41;;;7.43;79.43
22181;BME280;11256;50.830;12.834;2023-02-12T20:03:08;99709.22;;;7.40;79.40
22181;BME280;11256;50.830;12.834;2023-02-12T20:08:09;99722.50;;;7.41;79.60
22181;BME280;11256;50.830;12.834;2023-02-12T20:13:10;99706.53;;;7.40;79.40
22181;BME280;11256;50.830;12.834;2023-02-12T20:18:10;99700.31;;;7.39;79.08
22181;BME280;11256;50.830;12.834;2023-02-12T20:23:10;99705.06;;;7.44;79.46
22181;BME280;11256;50.830;12.834;2023-02-12T20:28:11;99711.50;;;7.43;79.54
22181;BME280;11256;50.830;12.834;2023-02-12T20:33:12;99706.53;;;7.40;79.53
22181;BME280;11256;50.830;12.834;2023-02-12T20:38:12;99714.22;;;7.36;79.33
22181;BME280;11256;50.830;12.834;2023-02-12T20:43:12;99725.84;;;7.37;79.69
22181;BME280;11256;50.830;12.834;2023-02-12T20:48:13;99717.09;;;7.35;79.65
22181;BME280;11256;50.830;12.834;2023-02-12T20:53:13;99707.16;;;7.29;79.68
22181;BME280;11256;50.830;12.834;2023-02-12T20:58:13;99718.78;;;7.36;79.35
22181;BME280;11256;50.830;12.834;2023-02-12T21:03:14;99715.47;;;7.34;79.56
22181;BME280;11256;50.830;12.834;2023-02-12T21:08:14;99712.75;;;7.34;79.59
22181;BME280;11256;50.830;12.834;2023-02-12T21:13:14;99719.19;;;7.33;79.52
22181;BME280;11256;50.830;12.834;2023-02-12T21:18:15;99713.81;;;7.33;80.16
22181;BME280;11256;50.830;12.834;2023-02-12T21:23:15;99714.66;;;7.33;79.41
22181;BME280;11256;50.830;12.834;2023-02-12T21:28:15;99725.63;;;7.32;79.55
22181;BME280;11256;50.830;12.834;2023-02-12T21:33:16;99722.34;;;7.30;79.52
22181;BME280;11256;50.830;12.834;2023-02-12T21:38:16;99730.41;;;7.30;79.42
22181;BME280;11256;50.830;12.834;2023-02-12T21:43:17;99720.44;;;7.24;79.88
22181;BME280;11256;50.830;12.834;2023-02-12T21:48:17;99733.31;;;7.28;79.64
22181;BME280;11256;50.830;12.834;2023-02-12T21:53:17;99732.47;;;7.28;79.65
22181;BME280;11256;50.830;12.834;2023-02-12T21:58:19;99732.91;;;7.25;79.72
22181;BME280;11256;50.830;12.834;2023-02-12T22:03:20;99733.72;;;7.25;79.50
22181;BME280;11256;50.830;12.834;2023-02-12T22:08:22;99741.00;;;7.25;79.42
22181;BME280;11256;50.830;12.834;2023-02-12T22:13:23;99743.69;;;7.25;79.58
22181;BME280;11256;50.830;12.834;2023-02-12T22:18:23;99740.16;;;7.24;79.48
22181;BME280;11256;50.830;12.834;2023-02-12T22:23:23;99733.13;;;7.23;79.71
22181;BME280;11256;50.830;12.834;2023-02-12T22:28:24;99722.13;;;7.25;79.97
22181;BME280;11256;50.830;12.834;2023-02-12T22:33:24;99730.81;;;7.27;79.95
22181;BME280;11256;50.830;12.834;2023-02-12T22:38:24;99728.13;;;7.27;80.16
22181;BME280;11256;50.830;12.834;2023-02-12T22:43:28;99730.81;;;7.27;79.95
22181;BME280;11256;50.830;12.834;2023-02-12T22:48:29;99724.63;;;7.20;79.72
22181;BME280;11256;50.830;12.834;2023-02-12T22:53:29;99734.56;;;7.26;79.69
22181;BME280;11256;50.830;12.834;2023-02-12T22:58:30;99728.13;;;7.27;79.71
22181;BME280;11256;50.830;12.834;2023-02-12T23:03:31;99730.81;;;7.27;80.12
22181;BME280;11256;50.830;12.834;2023-02-12T23:08:33;99729.56;;;7.23;79.60
22181;BME280;11256;50.830;12.834;2023-02-12T23:13:34;99737.06;;;7.21;79.71
22181;BME280;11256;50.830;12.834;2023-02-12T23:18:35;99731.06;;;7.19;79.86
22181;BME280;11256;50.830;12.834;2023-02-12T23:23:35;99721.06;;;7.13;79.55
22181;BME280;11256;50.830;12.834;2023-02-12T23:28:36;99732.72;;;7.20;79.35
22181;BME280;11256;50.830;12.834;2023-02-12T23:33:36;99730.00;;;7.20;79.89
22181;BME280;11256;50.830;12.834;2023-02-12T23:38:36;99708.84;;;7.10;79.49
22181;BME280;11256;50.830;12.834;2023-02-12T23:43:37;99715.28;;;7.16;79.74
22181;BME280;11256;50.830;12.834;2023-02-12T23:48:37;99708.84;;;7.17;79.74
22181;BME280;11256;50.830;12.834;2023-02-12T23:53:37;99705.94;;;7.12;79.63
22181;BME280;11256;50.830;12.834;2023-02-12T23:58:38;99711.13;;;7.13;79.21
